createdAt,value
2023-05-22T00:02:43.646Z,20.90
2023-05-22T00:05:30.386Z,20.90
2023-05-22T00:08:15.866Z,20.90
2023-05-22T00:11:01.596Z,20.90
2023-05-22T00:13:47.016Z,20.80
2023-05-22T00:16:32.747Z,20.70
2023-05-22T00:19:18.865Z,20.70
2023-05-22T00:22:05.461Z,20.70
2023-05-22T00:24:51.058Z,20.70
2023-05-22T00:27:36.765Z,20.60
2023-05-22T00:30:22.234Z,20.60
2023-05-22T00:33:08.109Z,20.60
2023-05-22T00:35:53.690Z,20.60
2023-05-22T00:38:39.356Z,20.50
2023-05-22T00:41:25.183Z,20.40
2023-05-22T00:44:11.885Z,20.40
2023-05-22T00:46:57.671Z,20.40
2023-05-22T00:49:43.239Z,20.40
2023-05-22T00:52:30.431Z,20.30
2023-05-22T00:55:18.255Z,20.30
2023-05-22T00:58:07.891Z,20.20
2023-05-22T01:00:53.649Z,20.20
2023-05-22T01:03:44.774Z,20.20
2023-05-22T01:06:32.296Z,20.10
2023-05-22T01:09:18.103Z,20.10
2023-05-22T01:12:10.539Z,20.10
2023-05-22T01:15:04.166Z,20.10
2023-05-22T01:17:59.017Z,20.10
2023-05-22T01:20:51.229Z,20.00
2023-05-22T01:23:49.336Z,20.00
2023-05-22T01:27:04.235Z,20.00
2023-05-22T01:29:58.428Z,20.00
2023-05-22T01:32:46.124Z,20.00
2023-05-22T01:35:33.074Z,20.00
2023-05-22T01:38:19.221Z,19.90
2023-05-22T01:41:04.881Z,19.90
2023-05-22T01:43:50.184Z,19.90
2023-05-22T01:46:36.245Z,19.90
2023-05-22T01:49:22.146Z,19.90
2023-05-22T01:52:12.925Z,19.80
2023-05-22T01:55:03.644Z,19.80
2023-05-22T01:57:59.576Z,19.70
2023-05-22T02:00:46.022Z,19.70
2023-05-22T02:03:33.491Z,19.70
2023-05-22T02:06:19.349Z,19.70
2023-05-22T02:09:05.672Z,19.70
2023-05-22T02:11:51.711Z,19.70
2023-05-22T02:14:37.622Z,19.70
2023-05-22T02:17:23.376Z,19.70
2023-05-22T02:20:16.044Z,19.70
2023-05-22T02:23:02.370Z,19.60
2023-05-22T02:25:48.442Z,19.60
2023-05-22T02:28:34.082Z,19.60
2023-05-22T02:31:19.782Z,19.50
2023-05-22T02:34:06.603Z,19.50
2023-05-22T02:36:51.906Z,19.50
2023-05-22T02:39:37.430Z,19.50
2023-05-22T02:42:23.557Z,19.40
2023-05-22T02:45:09.567Z,19.50
2023-05-22T02:47:55.530Z,19.50
2023-05-22T02:50:41.017Z,19.50
2023-05-22T02:53:27.653Z,19.50
2023-05-22T02:56:15.028Z,19.50
2023-05-22T02:59:00.457Z,19.50
2023-05-22T03:01:48.457Z,19.50
2023-05-22T03:04:34.179Z,19.50
2023-05-22T03:07:21.447Z,19.40
2023-05-22T03:10:07.379Z,19.40
2023-05-22T03:12:52.719Z,19.40
2023-05-22T03:15:38.397Z,19.40
2023-05-22T03:18:30.903Z,19.50
2023-05-22T03:21:16.204Z,19.40
2023-05-22T03:24:01.802Z,19.40
2023-05-22T03:26:47.477Z,19.40
2023-05-22T03:29:39.225Z,19.40
2023-05-22T03:32:24.917Z,19.40
2023-05-22T03:35:10.820Z,19.40
2023-05-22T03:37:56.665Z,19.30
2023-05-22T03:40:42.365Z,19.30
2023-05-22T03:43:29.024Z,19.30
2023-05-22T03:46:14.652Z,19.20
2023-05-22T03:49:00.249Z,19.30
2023-05-22T03:51:46.058Z,19.20
2023-05-22T03:54:31.699Z,19.20
2023-05-22T03:57:19.923Z,19.20
2023-05-22T04:00:09.721Z,19.20
2023-05-22T04:03:01.632Z,19.20
2023-05-22T04:05:47.326Z,19.10
2023-05-22T04:08:32.667Z,19.10
2023-05-22T04:11:19.774Z,19.00
2023-05-22T04:14:05.838Z,19.10
2023-05-22T04:16:51.472Z,19.10
2023-05-22T04:19:37.130Z,19.10
2023-05-22T04:22:22.725Z,19.20
2023-05-22T04:25:08.454Z,19.20
2023-05-22T04:27:53.826Z,19.20
2023-05-22T04:30:40.511Z,19.20
2023-05-22T04:33:26.738Z,19.20
2023-05-22T04:36:13.033Z,19.20
2023-05-22T04:39:00.441Z,19.20
2023-05-22T04:41:46.065Z,19.10
2023-05-22T04:44:34.350Z,19.10
2023-05-22T04:47:20.332Z,19.10
2023-05-22T04:50:06.932Z,19.10
2023-05-22T04:52:53.496Z,19.10
2023-05-22T04:55:39.949Z,19.20
2023-05-22T04:58:29.488Z,19.10
2023-05-22T05:01:16.679Z,19.10
2023-05-22T05:04:02.593Z,19.10
2023-05-22T05:06:47.966Z,19.20
2023-05-22T05:09:33.487Z,19.20
2023-05-22T05:12:20.425Z,19.20
2023-05-22T05:15:06.217Z,19.20
2023-05-22T05:17:51.748Z,19.20
2023-05-22T05:20:37.489Z,19.20
2023-05-22T05:23:23.497Z,19.20
2023-05-22T05:26:09.196Z,19.20
2023-05-22T05:28:56.569Z,19.20
2023-05-22T05:31:43.174Z,19.20
2023-05-22T05:34:34.498Z,19.10
2023-05-22T05:37:22.727Z,19.10
2023-05-22T05:40:09.551Z,19.20
2023-05-22T05:42:59.630Z,19.20
2023-05-22T05:45:46.999Z,19.20
2023-05-22T05:48:32.672Z,19.20
2023-05-22T05:51:18.811Z,19.20
2023-05-22T05:54:04.662Z,19.40
2023-05-22T05:56:50.644Z,19.30
2023-05-22T05:59:36.788Z,19.30
2023-05-22T06:02:55.105Z,19.30
2023-05-22T06:05:54.265Z,19.40
2023-05-22T06:08:46.060Z,19.40
2023-05-22T06:11:32.086Z,19.50
2023-05-22T06:14:17.868Z,19.50
2023-05-22T06:17:03.600Z,19.50
2023-05-22T06:19:49.174Z,19.40
2023-05-22T06:22:34.854Z,19.50
2023-05-22T06:25:20.437Z,19.50
2023-05-22T06:28:07.600Z,19.50
2023-05-22T06:30:52.960Z,19.60
2023-05-22T06:33:43.253Z,19.60
2023-05-22T06:36:29.256Z,19.60
2023-05-22T06:39:14.802Z,19.60
2023-05-22T06:42:29.186Z,19.70
2023-05-22T06:45:47.276Z,19.70
2023-05-22T06:48:36.127Z,19.70
2023-05-22T06:51:29.634Z,19.80
2023-05-22T06:54:22.502Z,19.80
2023-05-22T06:57:13.746Z,19.90
2023-05-22T07:00:00.501Z,19.90
2023-05-22T07:03:24.638Z,19.90
2023-05-22T07:06:33.667Z,20.00
2023-05-22T07:09:20.718Z,20.00
2023-05-22T07:12:08.312Z,20.10
2023-05-22T07:14:54.849Z,20.10
2023-05-22T07:17:43.217Z,20.20
2023-05-22T07:20:29.144Z,20.20
2023-05-22T07:23:40.925Z,20.30
2023-05-22T07:26:27.784Z,20.30
2023-05-22T07:29:22.448Z,20.40
2023-05-22T07:32:11.075Z,20.50
2023-05-22T07:34:56.892Z,20.50
2023-05-22T07:37:42.997Z,20.60
2023-05-22T07:40:28.832Z,20.60
2023-05-22T07:43:15.475Z,20.70
2023-05-22T07:46:00.893Z,20.70
2023-05-22T07:48:52.763Z,20.70
2023-05-22T07:51:38.434Z,20.80
2023-05-22T07:54:24.071Z,20.80
2023-05-22T07:57:12.589Z,20.90
2023-05-22T08:00:00.206Z,20.90
2023-05-22T08:02:45.936Z,21.00
2023-05-22T08:05:31.584Z,21.00
2023-05-22T08:08:16.961Z,21.10
2023-05-22T08:11:04.723Z,21.10
2023-05-22T08:13:50.453Z,21.20
2023-05-22T08:16:36.224Z,21.30
2023-05-22T08:19:22.271Z,21.30
2023-05-22T08:22:07.745Z,21.40
2023-05-22T08:24:53.299Z,21.40
2023-05-22T08:27:38.916Z,17.60
2023-05-22T08:30:24.853Z,21.50
2023-05-22T08:33:10.398Z,21.50
2023-05-22T08:35:56.008Z,21.50
2023-05-22T08:38:41.737Z,21.60
2023-05-22T08:41:27.506Z,21.60
2023-05-22T08:44:13.574Z,21.60
2023-05-22T08:47:00.946Z,21.60
2023-05-22T08:49:48.814Z,21.70
2023-05-22T08:52:42.728Z,24.60
2023-05-22T08:55:28.869Z,21.70
2023-05-22T08:58:17.179Z,21.80
2023-05-22T09:01:03.341Z,21.80
2023-05-22T09:03:51.356Z,21.80
2023-05-22T09:06:38.626Z,21.80
2023-05-22T09:09:24.020Z,21.80
2023-05-22T09:12:10.127Z,21.90
2023-05-22T09:14:56.062Z,21.90
2023-05-22T09:17:41.754Z,21.90
2023-05-22T09:20:27.408Z,21.90
2023-05-22T09:23:18.001Z,21.90
2023-05-22T09:26:04.170Z,22.00
2023-05-22T09:28:49.808Z,22.00
2023-05-22T09:31:41.076Z,22.00
2023-05-22T09:34:30.264Z,22.00
2023-05-22T09:37:16.721Z,22.10
2023-05-22T09:40:06.815Z,22.10
2023-05-22T09:42:52.632Z,22.10
2023-05-22T09:45:39.268Z,22.10
2023-05-22T09:48:25.520Z,22.10
2023-05-22T09:51:11.041Z,22.10
2023-05-22T09:54:00.562Z,22.10
2023-05-22T09:56:48.852Z,22.20
2023-05-22T09:59:35.134Z,22.20
2023-05-22T10:02:22.211Z,19.30
2023-05-22T10:05:09.534Z,22.20
2023-05-22T10:08:02.974Z,22.30
2023-05-22T10:10:51.430Z,22.30
2023-05-22T10:13:37.296Z,22.40
2023-05-22T10:16:23.238Z,22.40
2023-05-22T10:19:09.127Z,21.70
2023-05-22T10:21:56.503Z,22.40
2023-05-22T10:24:42.413Z,22.50
2023-05-22T10:27:28.127Z,22.50
2023-05-22T10:30:13.535Z,22.50
2023-05-22T10:33:37.861Z,22.60
2023-05-22T10:36:50.215Z,22.60
2023-05-22T10:39:47.758Z,22.60
2023-05-22T10:42:33.678Z,22.70
2023-05-22T10:45:19.482Z,22.70
2023-05-22T10:48:09.128Z,22.70
2023-05-22T10:50:54.675Z,22.80
2023-05-22T10:53:42.476Z,22.80
2023-05-22T10:56:35.450Z,22.90
2023-05-22T10:59:33.602Z,23.00
2023-05-22T11:02:31.207Z,23.00
2023-05-22T11:05:23.000Z,23.00
2023-05-22T11:08:34.924Z,23.10
2023-05-22T11:11:24.680Z,23.10
2023-05-22T11:14:11.280Z,23.20
2023-05-22T11:17:00.169Z,23.20
2023-05-22T11:19:49.097Z,23.20
2023-05-22T11:22:36.680Z,23.20
2023-05-22T11:25:22.446Z,23.30
2023-05-22T11:28:07.935Z,23.30
2023-05-22T11:30:53.957Z,23.40
2023-05-22T11:33:39.735Z,23.40
2023-05-22T11:36:25.343Z,23.50
2023-05-22T11:39:14.649Z,23.50
2023-05-22T11:42:00.168Z,23.60
2023-05-22T11:44:45.701Z,23.60
2023-05-22T11:47:31.422Z,23.70
2023-05-22T11:50:29.234Z,23.80
2023-05-22T11:53:22.758Z,23.80
2023-05-22T11:56:08.615Z,23.80
2023-05-22T11:58:54.083Z,23.90
2023-05-22T12:01:39.901Z,24.00
2023-05-22T12:04:25.945Z,24.00
2023-05-22T12:07:11.754Z,24.00
2023-05-22T12:09:57.978Z,27.40
2023-05-22T12:12:43.957Z,24.20
2023-05-22T12:15:29.209Z,24.10
2023-05-22T12:18:14.909Z,24.20
2023-05-22T12:21:00.448Z,25.50
2023-05-22T12:23:50.276Z,24.40
2023-05-22T12:26:36.442Z,24.40
2023-05-22T12:29:22.714Z,24.40
2023-05-22T12:32:11.758Z,24.60
2023-05-22T12:34:58.204Z,24.60
2023-05-22T12:37:50.375Z,24.70
2023-05-22T12:40:35.756Z,24.70
2023-05-22T12:43:22.984Z,24.80
2023-05-22T12:46:08.765Z,24.90
2023-05-22T12:48:54.335Z,25.00
2023-05-22T12:51:40.079Z,25.10
2023-05-22T12:54:25.928Z,25.20
2023-05-22T12:57:11.696Z,25.30
2023-05-22T12:59:57.487Z,25.40
2023-05-22T13:02:43.175Z,25.50
2023-05-22T13:05:29.088Z,25.60
2023-05-22T13:08:14.612Z,25.70
2023-05-22T13:11:00.315Z,25.80
2023-05-22T13:13:46.481Z,25.90
2023-05-22T13:16:31.999Z,26.00
2023-05-22T13:19:17.873Z,26.00
2023-05-22T13:22:03.921Z,26.00
2023-05-22T13:24:49.842Z,26.00
2023-05-22T13:27:36.531Z,26.00
2023-05-22T13:30:22.509Z,26.10
2023-05-22T13:33:11.099Z,26.20
2023-05-22T13:35:57.038Z,26.20
2023-05-22T13:38:43.086Z,26.20
2023-05-22T13:41:31.709Z,26.30
2023-05-22T13:44:19.301Z,26.40
2023-05-22T13:47:05.077Z,26.40
2023-05-22T13:49:50.495Z,26.40
2023-05-22T13:52:35.893Z,26.40
2023-05-22T13:55:21.441Z,26.40
2023-05-22T13:58:07.077Z,26.50
2023-05-22T14:00:52.838Z,26.60
2023-05-22T14:03:38.235Z,26.70
2023-05-22T14:06:24.667Z,26.80
2023-05-22T14:09:10.442Z,26.70
2023-05-22T14:11:58.016Z,26.50
2023-05-22T14:14:43.910Z,26.40
2023-05-22T14:17:29.646Z,26.40
2023-05-22T14:20:15.630Z,26.50
2023-05-22T14:23:01.471Z,23.90
2023-05-22T14:25:47.202Z,26.60
2023-05-22T14:28:32.872Z,26.60
2023-05-22T14:31:18.372Z,26.60
2023-05-22T14:34:04.316Z,26.50
2023-05-22T14:36:49.670Z,26.50
2023-05-22T14:39:35.679Z,26.30
2023-05-22T14:42:21.247Z,26.20
2023-05-22T14:45:07.500Z,26.10
2023-05-22T14:47:53.168Z,25.80
2023-05-22T14:50:38.720Z,25.70
2023-05-22T14:53:24.654Z,25.60
2023-05-22T14:56:10.464Z,25.50
2023-05-22T14:58:56.211Z,25.30
2023-05-22T15:01:41.829Z,25.30
2023-05-22T15:04:27.535Z,25.20
2023-05-22T15:07:13.216Z,25.10
2023-05-22T15:09:58.740Z,25.00
2023-05-22T15:12:44.389Z,25.00
2023-05-22T15:15:30.122Z,24.80
2023-05-22T15:18:16.536Z,24.80
2023-05-22T15:21:01.881Z,24.80
2023-05-22T15:23:48.081Z,25.00
2023-05-22T15:26:33.805Z,25.10
2023-05-22T15:29:19.492Z,25.20
2023-05-22T15:32:05.191Z,25.20
2023-05-22T15:34:50.673Z,25.20
2023-05-22T15:37:36.554Z,25.10
2023-05-22T15:40:22.756Z,25.10
2023-05-22T15:43:08.641Z,25.10
2023-05-22T15:45:54.231Z,25.00
2023-05-22T15:48:39.921Z,24.90
2023-05-22T15:51:25.332Z,24.90
2023-05-22T15:54:11.170Z,24.80
2023-05-22T15:56:57.510Z,24.70
2023-05-22T15:59:42.855Z,24.60
2023-05-22T16:02:28.787Z,24.60
2023-05-22T16:05:14.222Z,24.50
2023-05-22T16:07:59.952Z,24.40
2023-05-22T16:10:47.138Z,24.40
2023-05-22T16:13:33.243Z,24.30
2023-05-22T16:16:19.108Z,24.20
2023-05-22T16:19:04.740Z,24.20
2023-05-22T16:21:50.109Z,24.20
2023-05-22T16:24:35.914Z,24.20
2023-05-22T16:27:21.507Z,24.10
2023-05-22T16:30:07.222Z,24.10
2023-05-22T16:32:52.627Z,24.00
2023-05-22T16:35:38.654Z,24.10
2023-05-22T16:38:24.251Z,24.10
2023-05-22T16:41:09.800Z,24.10
2023-05-22T16:43:55.647Z,24.00
2023-05-22T16:46:41.009Z,24.00
2023-05-22T16:49:26.588Z,24.10
2023-05-22T16:52:12.450Z,24.00
2023-05-22T16:54:58.089Z,24.00
2023-05-22T16:57:44.130Z,24.00
2023-05-22T17:00:29.565Z,23.90
2023-05-22T17:03:15.293Z,23.90
2023-05-22T17:06:00.948Z,23.90
2023-05-22T17:08:46.429Z,23.90
2023-05-22T17:11:32.059Z,23.90
2023-05-22T17:14:17.801Z,23.90
2023-05-22T17:17:03.657Z,23.80
2023-05-22T17:19:49.055Z,23.80
2023-05-22T17:22:36.057Z,23.80
2023-05-22T17:25:22.123Z,23.70
2023-05-22T17:28:08.450Z,23.70
2023-05-22T17:30:54.149Z,23.70
2023-05-22T17:33:39.935Z,23.70
2023-05-22T17:36:25.582Z,23.70
2023-05-22T17:39:11.025Z,23.60
2023-05-22T17:41:58.444Z,23.70
2023-05-22T17:44:45.406Z,23.60
2023-05-22T17:47:31.241Z,23.60
2023-05-22T17:50:17.056Z,23.50
2023-05-22T17:53:02.840Z,23.50
2023-05-22T17:55:49.073Z,23.50
2023-05-22T17:58:34.765Z,23.40
2023-05-22T18:01:20.593Z,23.40
2023-05-22T18:04:06.270Z,23.40
2023-05-22T18:06:52.071Z,23.30
2023-05-22T18:09:37.699Z,23.20
2023-05-22T18:12:31.294Z,23.20
2023-05-22T18:15:17.657Z,23.10
2023-05-22T18:18:03.618Z,23.10
2023-05-22T18:20:49.282Z,23.00
2023-05-22T18:23:34.650Z,22.80
2023-05-22T18:26:20.215Z,22.60
2023-05-22T18:29:05.826Z,22.50
2023-05-22T18:31:51.432Z,22.30
2023-05-22T18:34:37.673Z,22.20
2023-05-22T18:37:23.159Z,22.20
2023-05-22T18:40:09.648Z,22.10
2023-05-22T18:42:55.585Z,22.00
2023-05-22T18:45:41.165Z,21.90
2023-05-22T18:48:28.159Z,21.90
2023-05-22T18:51:13.862Z,21.90
2023-05-22T18:53:59.474Z,21.90
2023-05-22T18:56:45.133Z,21.90
2023-05-22T18:59:30.798Z,22.00
2023-05-22T19:02:16.971Z,22.00
2023-05-22T19:05:03.605Z,22.00
2023-05-22T19:07:49.046Z,21.90
2023-05-22T19:10:34.661Z,21.90
2023-05-22T19:13:20.566Z,21.80
2023-05-22T19:16:05.976Z,21.70
2023-05-22T19:18:51.786Z,21.60
2023-05-22T19:21:38.312Z,21.70
2023-05-22T19:24:23.899Z,21.60
2023-05-22T19:27:09.645Z,21.60
2023-05-22T19:29:55.338Z,21.60
2023-05-22T19:32:40.828Z,21.50
2023-05-22T19:35:26.422Z,21.50
2023-05-22T19:38:11.930Z,21.50
2023-05-22T19:40:57.583Z,21.50
2023-05-22T19:43:46.331Z,21.50
2023-05-22T19:46:31.988Z,21.40
2023-05-22T19:49:17.671Z,21.40
2023-05-22T19:52:04.436Z,21.20
2023-05-22T19:54:49.826Z,21.10
2023-05-22T19:57:35.556Z,21.00
2023-05-22T20:00:21.181Z,21.00
2023-05-22T20:03:07.244Z,20.90
2023-05-22T20:05:55.987Z,20.80
2023-05-22T20:08:44.420Z,20.80
2023-05-22T20:11:30.169Z,20.70
2023-05-22T20:14:16.083Z,20.70
2023-05-22T20:17:02.767Z,20.70
2023-05-22T20:19:48.263Z,20.70
2023-05-22T20:22:33.940Z,20.60
2023-05-22T20:25:21.183Z,20.50
2023-05-22T20:28:06.713Z,20.50
2023-05-22T20:30:52.328Z,20.50
2023-05-22T20:33:37.809Z,20.50
2023-05-22T20:36:24.716Z,20.50
2023-05-22T20:39:11.813Z,20.50
2023-05-22T20:41:57.721Z,20.40
2023-05-22T20:44:43.233Z,20.40
2023-05-22T20:47:28.901Z,20.40
2023-05-22T20:50:15.549Z,20.40
2023-05-22T20:53:01.337Z,20.30
2023-05-22T20:55:46.738Z,20.30
2023-05-22T20:58:32.527Z,20.30
2023-05-22T21:01:18.171Z,20.30
2023-05-22T21:04:03.879Z,20.20
2023-05-22T21:06:49.394Z,20.20
2023-05-22T21:09:35.225Z,20.20
2023-05-22T21:12:20.841Z,20.20
2023-05-22T21:15:06.833Z,21.90
2023-05-22T21:17:52.507Z,20.20
2023-05-22T21:20:38.424Z,20.10
2023-05-22T21:23:24.812Z,20.10
2023-05-22T21:26:10.386Z,20.10
2023-05-22T21:28:55.836Z,20.10
2023-05-22T21:31:41.596Z,20.10
2023-05-22T21:34:27.300Z,20.10
2023-05-22T21:37:12.788Z,20.10
2023-05-22T21:39:58.522Z,20.10
2023-05-22T21:42:46.297Z,20.00
2023-05-22T21:45:32.610Z,20.00
2023-05-22T21:48:18.346Z,20.00
2023-05-22T21:51:03.998Z,19.90
2023-05-22T21:53:49.674Z,19.90
2023-05-22T21:56:35.289Z,19.90
2023-05-22T21:59:21.040Z,19.90
2023-05-22T22:02:06.585Z,19.90
2023-05-22T22:04:51.862Z,19.90
2023-05-22T22:07:37.935Z,19.90
2023-05-22T22:10:23.372Z,19.90
2023-05-22T22:13:09.020Z,19.80
2023-05-22T22:15:55.000Z,19.80
2023-05-22T22:18:40.919Z,19.80
2023-05-22T22:21:26.566Z,17.60
2023-05-22T22:24:13.144Z,19.70
2023-05-22T22:26:58.666Z,19.60
2023-05-22T22:29:44.414Z,19.60
2023-05-22T22:32:29.759Z,19.60
2023-05-22T22:35:15.421Z,19.60
2023-05-22T22:38:00.849Z,19.60
2023-05-22T22:40:46.390Z,19.60
2023-05-22T22:43:32.008Z,19.60
2023-05-22T22:46:17.589Z,19.50
2023-05-22T22:49:03.220Z,19.50
2023-05-22T22:51:51.049Z,19.40
2023-05-22T22:54:36.647Z,19.40
2023-05-22T22:57:22.322Z,19.30
2023-05-22T23:00:08.353Z,19.30
2023-05-22T23:02:53.743Z,19.30
2023-05-22T23:05:39.604Z,19.20
2023-05-22T23:08:25.991Z,19.20
2023-05-22T23:11:11.584Z,19.20
2023-05-22T23:13:57.647Z,19.20
2023-05-22T23:16:43.426Z,19.10
2023-05-22T23:19:29.265Z,19.10
2023-05-22T23:22:14.863Z,19.00
2023-05-22T23:25:00.468Z,19.00
2023-05-22T23:27:46.350Z,18.90
2023-05-22T23:30:32.076Z,18.80
2023-05-22T23:33:17.697Z,18.80
2023-05-22T23:36:03.481Z,18.70
2023-05-22T23:38:49.148Z,18.70
2023-05-22T23:41:35.610Z,18.60
2023-05-22T23:44:21.662Z,18.70
2023-05-22T23:47:07.229Z,18.60
2023-05-22T23:49:55.192Z,18.60
2023-05-22T23:52:40.838Z,18.50
2023-05-22T23:55:26.427Z,18.50
2023-05-22T23:58:12.141Z,18.50
